sensor_id;sensor_type;location;lat;lon;timestamp;temperature;humidity
18729;DHT22;9493;51.884;5.188;2022-08-16T00:01:57;20.10;99.90
18729;DHT22;9493;51.884;5.188;2022-08-16T00:04:24;20.20;99.90
18729;DHT22;9493;51.884;5.188;2022-08-16T00:06:51;20.10;99.90
18729;DHT22;9493;51.884;5.188;2022-08-16T00:09:18;20.10;99.90
18729;DHT22;9493;51.884;5.188;2022-08-16T00:11:46;20.20;99.90
18729;DHT22;9493;51.884;5.188;2022-08-16T00:14:16;20.20;99.90
18729;DHT22;9493;51.884;5.188;2022-08-16T00:16:45;20.20;99.90
18729;DHT22;9493;51.884;5.188;2022-08-16T00:19:14;20.20;99.90
18729;DHT22;9493;51.884;5.188;2022-08-16T00:21:42;20.10;99.90
18729;DHT22;9493;51.884;5.188;2022-08-16T00:24:09;20.10;99.90
18729;DHT22;9493;51.884;5.188;2022-08-16T00:26:36;20.10;99.90
18729;DHT22;9493;51.884;5.188;2022-08-16T00:29:03;20.10;99.90
18729;DHT22;9493;51.884;5.188;2022-08-16T00:31:31;20.10;99.90
18729;DHT22;9493;51.884;5.188;2022-08-16T00:34:00;20.10;99.90
18729;DHT22;9493;51.884;5.188;2022-08-16T00:36:27;20.00;99.90
18729;DHT22;9493;51.884;5.188;2022-08-16T00:38:54;20.00;99.90
18729;DHT22;9493;51.884;5.188;2022-08-16T00:41:21;20.20;99.90
18729;DHT22;9493;51.884;5.188;2022-08-16T00:43:49;19.90;99.90
18729;DHT22;9493;51.884;5.188;2022-08-16T00:46:20;19.90;99.90
18729;DHT22;9493;51.884;5.188;2022-08-16T00:48:48;19.90;99.90
18729;DHT22;9493;51.884;5.188;2022-08-16T00:51:19;19.90;99.90
18729;DHT22;9493;51.884;5.188;2022-08-16T00:53:47;20.00;99.90
18729;DHT22;9493;51.884;5.188;2022-08-16T00:56:19;19.80;99.90
18729;DHT22;9493;51.884;5.188;2022-08-16T00:58:48;19.90;99.90
18729;DHT22;9493;51.884;5.188;2022-08-16T01:01:16;19.80;99.90
18729;DHT22;9493;51.884;5.188;2022-08-16T01:03:46;19.90;99.90
18729;DHT22;9493;51.884;5.188;2022-08-16T01:06:15;19.90;99.90
18729;DHT22;9493;51.884;5.188;2022-08-16T01:08:47;19.80;99.90
18729;DHT22;9493;51.884;5.188;2022-08-16T01:11:14;19.80;99.90
18729;DHT22;9493;51.884;5.188;2022-08-16T01:13:42;19.80;99.90
18729;DHT22;9493;51.884;5.188;2022-08-16T01:16:13;19.80;99.90
18729;DHT22;9493;51.884;5.188;2022-08-16T01:18:43;19.80;99.90
18729;DHT22;9493;51.884;5.188;2022-08-16T01:21:20;19.80;99.90
18729;DHT22;9493;51.884;5.188;2022-08-16T01:24:12;19.80;99.90
18729;DHT22;9493;51.884;5.188;2022-08-16T01:26:42;19.80;99.90
18729;DHT22;9493;51.884;5.188;2022-08-16T01:29:12;19.70;99.90
18729;DHT22;9493;51.884;5.188;2022-08-16T01:31:41;19.70;99.90
18729;DHT22;9493;51.884;5.188;2022-08-16T01:34:08;19.70;99.90
18729;DHT22;9493;51.884;5.188;2022-08-16T01:36:35;19.60;99.90
18729;DHT22;9493;51.884;5.188;2022-08-16T01:39:08;19.60;99.90
18729;DHT22;9493;51.884;5.188;2022-08-16T01:41:38;19.50;99.90
18729;DHT22;9493;51.884;5.188;2022-08-16T01:44:05;19.50;99.90
18729;DHT22;9493;51.884;5.188;2022-08-16T01:46:34;19.50;99.90
18729;DHT22;9493;51.884;5.188;2022-08-16T01:49:07;19.50;99.90
18729;DHT22;9493;51.884;5.188;2022-08-16T01:51:35;19.50;99.90
18729;DHT22;9493;51.884;5.188;2022-08-16T01:54:03;19.50;99.90
18729;DHT22;9493;51.884;5.188;2022-08-16T01:56:30;19.50;99.90
18729;DHT22;9493;51.884;5.188;2022-08-16T01:59:00;19.50;99.90
18729;DHT22;9493;51.884;5.188;2022-08-16T02:01:27;19.50;99.90
18729;DHT22;9493;51.884;5.188;2022-08-16T02:03:55;19.50;99.90
18729;DHT22;9493;51.884;5.188;2022-08-16T02:06:22;19.50;99.90
18729;DHT22;9493;51.884;5.188;2022-08-16T02:08:50;19.50;99.90
18729;DHT22;9493;51.884;5.188;2022-08-16T02:11:20;19.50;99.90
18729;DHT22;9493;51.884;5.188;2022-08-16T02:13:47;19.50;99.90
18729;DHT22;9493;51.884;5.188;2022-08-16T02:16:16;19.50;99.90
18729;DHT22;9493;51.884;5.188;2022-08-16T02:18:43;19.50;99.90
18729;DHT22;9493;51.884;5.188;2022-08-16T02:21:11;19.40;99.90
18729;DHT22;9493;51.884;5.188;2022-08-16T02:23:39;19.40;99.90
18729;DHT22;9493;51.884;5.188;2022-08-16T02:26:06;19.40;99.90
18729;DHT22;9493;51.884;5.188;2022-08-16T02:28:34;19.30;99.90
18729;DHT22;9493;51.884;5.188;2022-08-16T02:31:05;19.40;99.90
18729;DHT22;9493;51.884;5.188;2022-08-16T02:33:34;19.30;99.90
18729;DHT22;9493;51.884;5.188;2022-08-16T02:36:01;19.30;99.90
18729;DHT22;9493;51.884;5.188;2022-08-16T02:38:28;19.30;99.90
18729;DHT22;9493;51.884;5.188;2022-08-16T02:40:56;19.30;99.90
18729;DHT22;9493;51.884;5.188;2022-08-16T02:43:24;19.30;99.90
18729;DHT22;9493;51.884;5.188;2022-08-16T02:45:51;19.30;99.90
18729;DHT22;9493;51.884;5.188;2022-08-16T02:48:18;19.20;99.90
18729;DHT22;9493;51.884;5.188;2022-08-16T02:50:47;19.20;99.90
18729;DHT22;9493;51.884;5.188;2022-08-16T02:53:14;19.20;99.90
18729;DHT22;9493;51.884;5.188;2022-08-16T02:55:40;19.30;99.90
18729;DHT22;9493;51.884;5.188;2022-08-16T02:58:08;19.20;99.90
18729;DHT22;9493;51.884;5.188;2022-08-16T03:00:36;19.20;99.90
18729;DHT22;9493;51.884;5.188;2022-08-16T03:03:03;19.10;99.90
18729;DHT22;9493;51.884;5.188;2022-08-16T03:05:30;19.20;99.90
18729;DHT22;9493;51.884;5.188;2022-08-16T03:07:59;19.20;99.90
18729;DHT22;9493;51.884;5.188;2022-08-16T03:10:26;19.10;99.90
18729;DHT22;9493;51.884;5.188;2022-08-16T03:12:53;19.10;99.90
18729;DHT22;9493;51.884;5.188;2022-08-16T03:15:20;19.10;99.90
18729;DHT22;9493;51.884;5.188;2022-08-16T03:17:47;19.10;99.90
18729;DHT22;9493;51.884;5.188;2022-08-16T03:20:15;19.00;99.90
18729;DHT22;9493;51.884;5.188;2022-08-16T03:22:42;19.00;99.90
18729;DHT22;9493;51.884;5.188;2022-08-16T03:25:12;19.00;99.90
18729;DHT22;9493;51.884;5.188;2022-08-16T03:27:40;19.10;99.90
18729;DHT22;9493;51.884;5.188;2022-08-16T03:30:10;19.00;99.90
18729;DHT22;9493;51.884;5.188;2022-08-16T03:32:37;19.00;99.90
18729;DHT22;9493;51.884;5.188;2022-08-16T03:35:05;19.00;99.90
18729;DHT22;9493;51.884;5.188;2022-08-16T03:37:32;19.00;99.90
18729;DHT22;9493;51.884;5.188;2022-08-16T03:39:59;18.90;99.90
18729;DHT22;9493;51.884;5.188;2022-08-16T03:42:28;18.90;99.90
18729;DHT22;9493;51.884;5.188;2022-08-16T03:44:54;19.00;99.90
18729;DHT22;9493;51.884;5.188;2022-08-16T03:47:21;18.90;99.90
18729;DHT22;9493;51.884;5.188;2022-08-16T03:49:48;18.90;99.90
18729;DHT22;9493;51.884;5.188;2022-08-16T03:52:15;18.90;99.90
18729;DHT22;9493;51.884;5.188;2022-08-16T03:54:43;18.90;99.90
18729;DHT22;9493;51.884;5.188;2022-08-16T03:57:10;18.90;99.90
18729;DHT22;9493;51.884;5.188;2022-08-16T03:59:38;18.90;99.90
18729;DHT22;9493;51.884;5.188;2022-08-16T04:02:05;18.90;99.90
18729;DHT22;9493;51.884;5.188;2022-08-16T04:04:33;18.80;99.90
18729;DHT22;9493;51.884;5.188;2022-08-16T04:07:01;18.80;99.90
18729;DHT22;9493;51.884;5.188;2022-08-16T04:09:29;18.80;99.90
18729;DHT22;9493;51.884;5.188;2022-08-16T04:11:56;18.80;99.90
18729;DHT22;9493;51.884;5.188;2022-08-16T04:14:23;18.70;99.90
18729;DHT22;9493;51.884;5.188;2022-08-16T04:16:51;18.70;99.90
18729;DHT22;9493;51.884;5.188;2022-08-16T04:19:18;18.60;99.90
18729;DHT22;9493;51.884;5.188;2022-08-16T04:21:45;18.70;99.90
18729;DHT22;9493;51.884;5.188;2022-08-16T04:24:11;18.60;99.90
18729;DHT22;9493;51.884;5.188;2022-08-16T04:26:38;18.60;99.90
18729;DHT22;9493;51.884;5.188;2022-08-16T04:29:05;18.70;99.90
18729;DHT22;9493;51.884;5.188;2022-08-16T04:31:32;18.70;99.90
18729;DHT22;9493;51.884;5.188;2022-08-16T04:34:00;18.60;99.90
18729;DHT22;9493;51.884;5.188;2022-08-16T04:36:27;18.60;99.90
18729;DHT22;9493;51.884;5.188;2022-08-16T04:38:54;18.60;99.90
18729;DHT22;9493;51.884;5.188;2022-08-16T04:41:22;18.50;99.90
18729;DHT22;9493;51.884;5.188;2022-08-16T04:43:48;18.50;99.90
18729;DHT22;9493;51.884;5.188;2022-08-16T04:46:16;18.50;99.90
18729;DHT22;9493;51.884;5.188;2022-08-16T04:48:43;18.50;99.90
18729;DHT22;9493;51.884;5.188;2022-08-16T04:51:11;18.50;99.90
18729;DHT22;9493;51.884;5.188;2022-08-16T04:53:38;18.40;99.90
18729;DHT22;9493;51.884;5.188;2022-08-16T04:56:05;18.40;99.90
18729;DHT22;9493;51.884;5.188;2022-08-16T04:58:32;18.40;99.90
18729;DHT22;9493;51.884;5.188;2022-08-16T05:00:59;18.40;99.90
18729;DHT22;9493;51.884;5.188;2022-08-16T05:03:26;18.40;99.90
18729;DHT22;9493;51.884;5.188;2022-08-16T05:05:54;18.50;99.90
18729;DHT22;9493;51.884;5.188;2022-08-16T05:08:23;18.50;99.90
18729;DHT22;9493;51.884;5.188;2022-08-16T05:10:50;18.50;99.90
18729;DHT22;9493;51.884;5.188;2022-08-16T05:13:17;18.60;99.90
18729;DHT22;9493;51.884;5.188;2022-08-16T05:15:44;18.60;99.90
18729;DHT22;9493;51.884;5.188;2022-08-16T05:18:11;18.60;99.90
18729;DHT22;9493;51.884;5.188;2022-08-16T05:20:38;18.60;99.90
18729;DHT22;9493;51.884;5.188;2022-08-16T05:23:05;18.50;99.90
18729;DHT22;9493;51.884;5.188;2022-08-16T05:25:33;18.60;99.90
18729;DHT22;9493;51.884;5.188;2022-08-16T05:28:00;18.60;99.90
18729;DHT22;9493;51.884;5.188;2022-08-16T05:30:27;18.60;99.90
18729;DHT22;9493;51.884;5.188;2022-08-16T05:32:54;18.60;99.90
18729;DHT22;9493;51.884;5.188;2022-08-16T05:35:21;18.70;99.90
18729;DHT22;9493;51.884;5.188;2022-08-16T05:37:48;18.70;99.90
18729;DHT22;9493;51.884;5.188;2022-08-16T05:40:15;18.70;99.90
18729;DHT22;9493;51.884;5.188;2022-08-16T05:42:43;18.70;99.90
18729;DHT22;9493;51.884;5.188;2022-08-16T05:45:10;18.70;99.90
18729;DHT22;9493;51.884;5.188;2022-08-16T05:47:37;18.70;99.90
18729;DHT22;9493;51.884;5.188;2022-08-16T05:50:04;18.80;99.90
18729;DHT22;9493;51.884;5.188;2022-08-16T05:52:32;18.80;99.90
18729;DHT22;9493;51.884;5.188;2022-08-16T05:54:59;18.80;99.90
18729;DHT22;9493;51.884;5.188;2022-08-16T05:57:26;18.90;99.90
18729;DHT22;9493;51.884;5.188;2022-08-16T05:59:54;19.00;99.90
18729;DHT22;9493;51.884;5.188;2022-08-16T06:02:21;19.00;99.90
18729;DHT22;9493;51.884;5.188;2022-08-16T06:04:50;19.10;99.90
18729;DHT22;9493;51.884;5.188;2022-08-16T06:07:17;19.10;99.90
18729;DHT22;9493;51.884;5.188;2022-08-16T06:09:44;19.20;99.90
18729;DHT22;9493;51.884;5.188;2022-08-16T06:12:11;19.20;99.90
18729;DHT22;9493;51.884;5.188;2022-08-16T06:14:38;19.20;99.90
18729;DHT22;9493;51.884;5.188;2022-08-16T06:17:06;19.30;99.90
18729;DHT22;9493;51.884;5.188;2022-08-16T06:19:33;19.50;99.90
18729;DHT22;9493;51.884;5.188;2022-08-16T06:22:00;19.50;99.90
18729;DHT22;9493;51.884;5.188;2022-08-16T06:24:27;19.40;99.90
18729;DHT22;9493;51.884;5.188;2022-08-16T06:26:54;19.60;99.90
18729;DHT22;9493;51.884;5.188;2022-08-16T06:29:21;19.50;99.90
18729;DHT22;9493;51.884;5.188;2022-08-16T06:31:47;19.60;99.90
18729;DHT22;9493;51.884;5.188;2022-08-16T06:34:16;19.70;99.90
18729;DHT22;9493;51.884;5.188;2022-08-16T06:36:43;19.70;99.90
18729;DHT22;9493;51.884;5.188;2022-08-16T06:39:10;19.70;99.90
18729;DHT22;9493;51.884;5.188;2022-08-16T06:41:37;19.80;99.90
18729;DHT22;9493;51.884;5.188;2022-08-16T06:44:04;19.80;99.90
18729;DHT22;9493;51.884;5.188;2022-08-16T06:46:33;19.80;99.90
18729;DHT22;9493;51.884;5.188;2022-08-16T06:49:01;20.10;99.90
18729;DHT22;9493;51.884;5.188;2022-08-16T06:51:30;19.90;99.90
18729;DHT22;9493;51.884;5.188;2022-08-16T06:53:57;20.00;99.90
18729;DHT22;9493;51.884;5.188;2022-08-16T06:56:25;20.00;99.90
18729;DHT22;9493;51.884;5.188;2022-08-16T06:58:52;20.10;99.90
18729;DHT22;9493;51.884;5.188;2022-08-16T07:01:20;20.20;99.90
18729;DHT22;9493;51.884;5.188;2022-08-16T07:03:47;20.20;99.90
18729;DHT22;9493;51.884;5.188;2022-08-16T07:06:14;20.20;99.90
18729;DHT22;9493;51.884;5.188;2022-08-16T07:08:44;20.30;99.90
18729;DHT22;9493;51.884;5.188;2022-08-16T07:11:12;20.50;99.90
18729;DHT22;9493;51.884;5.188;2022-08-16T07:13:39;20.60;99.90
18729;DHT22;9493;51.884;5.188;2022-08-16T07:16:07;20.60;99.90
18729;DHT22;9493;51.884;5.188;2022-08-16T07:18:36;20.70;99.90
18729;DHT22;9493;51.884;5.188;2022-08-16T07:21:04;20.80;99.90
18729;DHT22;9493;51.884;5.188;2022-08-16T07:23:30;20.90;99.90
18729;DHT22;9493;51.884;5.188;2022-08-16T07:25:59;21.10;99.90
18729;DHT22;9493;51.884;5.188;2022-08-16T07:28:26;21.00;99.90
18729;DHT22;9493;51.884;5.188;2022-08-16T07:30:53;21.00;99.90
18729;DHT22;9493;51.884;5.188;2022-08-16T07:33:21;21.10;99.90
18729;DHT22;9493;51.884;5.188;2022-08-16T07:35:47;21.30;99.90
18729;DHT22;9493;51.884;5.188;2022-08-16T07:38:14;21.50;99.90
18729;DHT22;9493;51.884;5.188;2022-08-16T07:40:41;21.40;99.90
18729;DHT22;9493;51.884;5.188;2022-08-16T07:43:09;21.60;99.90
18729;DHT22;9493;51.884;5.188;2022-08-16T07:45:36;21.60;99.90
18729;DHT22;9493;51.884;5.188;2022-08-16T07:48:03;21.90;99.90
18729;DHT22;9493;51.884;5.188;2022-08-16T07:50:30;22.00;99.90
18729;DHT22;9493;51.884;5.188;2022-08-16T07:52:57;21.90;99.90
18729;DHT22;9493;51.884;5.188;2022-08-16T07:55:24;22.00;99.90
18729;DHT22;9493;51.884;5.188;2022-08-16T07:57:51;22.10;99.90
18729;DHT22;9493;51.884;5.188;2022-08-16T08:00:19;22.40;99.90
18729;DHT22;9493;51.884;5.188;2022-08-16T08:02:46;22.40;99.90
18729;DHT22;9493;51.884;5.188;2022-08-16T08:05:13;22.70;99.90
18729;DHT22;9493;51.884;5.188;2022-08-16T08:07:40;22.60;99.90
18729;DHT22;9493;51.884;5.188;2022-08-16T08:10:08;22.80;99.90
18729;DHT22;9493;51.884;5.188;2022-08-16T08:12:35;22.90;99.90
18729;DHT22;9493;51.884;5.188;2022-08-16T08:15:03;23.00;99.90
18729;DHT22;9493;51.884;5.188;2022-08-16T08:17:31;23.20;99.90
18729;DHT22;9493;51.884;5.188;2022-08-16T08:19:58;23.40;99.90
18729;DHT22;9493;51.884;5.188;2022-08-16T08:22:25;23.40;99.90
18729;DHT22;9493;51.884;5.188;2022-08-16T08:24:52;23.70;99.90
18729;DHT22;9493;51.884;5.188;2022-08-16T08:27:19;24.10;99.90
18729;DHT22;9493;51.884;5.188;2022-08-16T08:29:45;24.20;99.90
18729;DHT22;9493;51.884;5.188;2022-08-16T08:32:12;24.20;99.90
18729;DHT22;9493;51.884;5.188;2022-08-16T08:34:41;24.10;99.90
18729;DHT22;9493;51.884;5.188;2022-08-16T08:37:07;24.50;99.90
18729;DHT22;9493;51.884;5.188;2022-08-16T08:39:34;24.40;99.90
18729;DHT22;9493;51.884;5.188;2022-08-16T08:42:03;24.70;99.90
18729;DHT22;9493;51.884;5.188;2022-08-16T08:44:30;24.70;99.90
18729;DHT22;9493;51.884;5.188;2022-08-16T08:46:59;25.00;99.90
18729;DHT22;9493;51.884;5.188;2022-08-16T08:49:27;25.30;99.90
18729;DHT22;9493;51.884;5.188;2022-08-16T08:51:56;25.40;99.90
18729;DHT22;9493;51.884;5.188;2022-08-16T08:54:24;25.40;99.90
18729;DHT22;9493;51.884;5.188;2022-08-16T08:56:51;25.00;99.90
18729;DHT22;9493;51.884;5.188;2022-08-16T08:59:18;24.90;99.90
18729;DHT22;9493;51.884;5.188;2022-08-16T09:01:45;25.30;99.90
18729;DHT22;9493;51.884;5.188;2022-08-16T09:04:12;25.50;99.90
18729;DHT22;9493;51.884;5.188;2022-08-16T09:06:40;26.00;99.90
18729;DHT22;9493;51.884;5.188;2022-08-16T09:09:09;26.00;99.90
18729;DHT22;9493;51.884;5.188;2022-08-16T09:11:37;26.10;99.90
18729;DHT22;9493;51.884;5.188;2022-08-16T09:14:04;25.90;99.90
18729;DHT22;9493;51.884;5.188;2022-08-16T09:16:31;26.20;99.90
18729;DHT22;9493;51.884;5.188;2022-08-16T09:18:58;26.10;99.90
18729;DHT22;9493;51.884;5.188;2022-08-16T09:21:26;26.30;99.90
18729;DHT22;9493;51.884;5.188;2022-08-16T09:23:53;26.40;99.90
18729;DHT22;9493;51.884;5.188;2022-08-16T09:26:21;26.40;99.90
18729;DHT22;9493;51.884;5.188;2022-08-16T09:28:49;26.60;99.90
18729;DHT22;9493;51.884;5.188;2022-08-16T09:31:17;26.50;99.90
18729;DHT22;9493;51.884;5.188;2022-08-16T09:33:44;26.60;99.90
18729;DHT22;9493;51.884;5.188;2022-08-16T09:36:11;26.80;99.90
18729;DHT22;9493;51.884;5.188;2022-08-16T09:38:38;26.80;99.90
18729;DHT22;9493;51.884;5.188;2022-08-16T09:41:08;26.50;99.90
18729;DHT22;9493;51.884;5.188;2022-08-16T09:43:37;26.50;99.90
18729;DHT22;9493;51.884;5.188;2022-08-16T09:46:05;26.90;99.90
18729;DHT22;9493;51.884;5.188;2022-08-16T09:48:33;26.70;99.90
18729;DHT22;9493;51.884;5.188;2022-08-16T09:51:02;26.20;99.90
18729;DHT22;9493;51.884;5.188;2022-08-16T09:53:29;26.40;99.90
18729;DHT22;9493;51.884;5.188;2022-08-16T09:55:57;26.40;99.90
18729;DHT22;9493;51.884;5.188;2022-08-16T09:58:25;26.10;99.90
18729;DHT22;9493;51.884;5.188;2022-08-16T10:00:54;26.50;99.90
18729;DHT22;9493;51.884;5.188;2022-08-16T10:03:21;26.80;99.90
18729;DHT22;9493;51.884;5.188;2022-08-16T10:05:49;27.00;99.90
18729;DHT22;9493;51.884;5.188;2022-08-16T10:08:16;27.30;99.90
18729;DHT22;9493;51.884;5.188;2022-08-16T10:10:43;27.30;99.90
18729;DHT22;9493;51.884;5.188;2022-08-16T10:13:31;27.40;99.90
18729;DHT22;9493;51.884;5.188;2022-08-16T10:16:00;27.30;99.90
18729;DHT22;9493;51.884;5.188;2022-08-16T10:18:28;27.30;99.90
18729;DHT22;9493;51.884;5.188;2022-08-16T10:20:57;27.70;99.90
18729;DHT22;9493;51.884;5.188;2022-08-16T10:23:24;27.70;99.90
18729;DHT22;9493;51.884;5.188;2022-08-16T10:25:52;28.10;99.90
18729;DHT22;9493;51.884;5.188;2022-08-16T10:28:19;28.00;99.90
18729;DHT22;9493;51.884;5.188;2022-08-16T10:30:46;27.50;99.90
18729;DHT22;9493;51.884;5.188;2022-08-16T10:33:14;27.80;99.90
18729;DHT22;9493;51.884;5.188;2022-08-16T10:35:43;28.00;99.90
18729;DHT22;9493;51.884;5.188;2022-08-16T10:38:11;27.90;99.90
18729;DHT22;9493;51.884;5.188;2022-08-16T10:40:39;28.00;99.90
18729;DHT22;9493;51.884;5.188;2022-08-16T10:43:06;27.70;99.90
18729;DHT22;9493;51.884;5.188;2022-08-16T10:45:34;27.90;99.90
18729;DHT22;9493;51.884;5.188;2022-08-16T10:48:01;27.10;99.90
18729;DHT22;9493;51.884;5.188;2022-08-16T10:50:30;27.00;99.90
18729;DHT22;9493;51.884;5.188;2022-08-16T10:52:57;26.60;99.90
18729;DHT22;9493;51.884;5.188;2022-08-16T10:55:24;26.90;99.90
18729;DHT22;9493;51.884;5.188;2022-08-16T10:57:53;27.20;99.90
18729;DHT22;9493;51.884;5.188;2022-08-16T11:00:21;26.90;99.90
18729;DHT22;9493;51.884;5.188;2022-08-16T11:02:48;27.20;99.90
18729;DHT22;9493;51.884;5.188;2022-08-16T11:05:16;27.10;99.90
18729;DHT22;9493;51.884;5.188;2022-08-16T11:07:46;27.30;99.90
18729;DHT22;9493;51.884;5.188;2022-08-16T11:10:17;27.40;99.90
18729;DHT22;9493;51.884;5.188;2022-08-16T11:12:44;27.40;99.90
18729;DHT22;9493;51.884;5.188;2022-08-16T11:15:11;27.50;99.90
18729;DHT22;9493;51.884;5.188;2022-08-16T11:17:38;27.80;99.90
18729;DHT22;9493;51.884;5.188;2022-08-16T11:20:07;28.40;99.90
18729;DHT22;9493;51.884;5.188;2022-08-16T11:22:44;29.00;99.90
18729;DHT22;9493;51.884;5.188;2022-08-16T11:25:12;29.00;99.90
18729;DHT22;9493;51.884;5.188;2022-08-16T11:27:39;29.10;99.90
18729;DHT22;9493;51.884;5.188;2022-08-16T11:30:09;29.10;99.90
18729;DHT22;9493;51.884;5.188;2022-08-16T11:32:37;29.20;99.90
18729;DHT22;9493;51.884;5.188;2022-08-16T11:35:07;29.10;99.90
18729;DHT22;9493;51.884;5.188;2022-08-16T11:37:34;29.70;99.90
18729;DHT22;9493;51.884;5.188;2022-08-16T11:40:04;30.00;99.90
18729;DHT22;9493;51.884;5.188;2022-08-16T11:42:32;29.40;99.90
18729;DHT22;9493;51.884;5.188;2022-08-16T11:44:58;29.60;99.90
18729;DHT22;9493;51.884;5.188;2022-08-16T11:47:25;29.00;99.90
18729;DHT22;9493;51.884;5.188;2022-08-16T11:49:52;29.40;99.90
18729;DHT22;9493;51.884;5.188;2022-08-16T11:52:19;29.20;99.90
18729;DHT22;9493;51.884;5.188;2022-08-16T11:54:48;29.70;99.90
18729;DHT22;9493;51.884;5.188;2022-08-16T11:57:17;30.30;99.90
18729;DHT22;9493;51.884;5.188;2022-08-16T11:59:44;29.90;99.90
18729;DHT22;9493;51.884;5.188;2022-08-16T12:02:11;29.90;99.90
18729;DHT22;9493;51.884;5.188;2022-08-16T12:04:37;29.40;99.90
18729;DHT22;9493;51.884;5.188;2022-08-16T12:07:06;29.40;99.90
18729;DHT22;9493;51.884;5.188;2022-08-16T12:09:35;29.80;99.90
18729;DHT22;9493;51.884;5.188;2022-08-16T12:12:03;29.30;99.90
18729;DHT22;9493;51.884;5.188;2022-08-16T12:14:32;29.60;99.90
18729;DHT22;9493;51.884;5.188;2022-08-16T12:16:59;29.40;99.90
18729;DHT22;9493;51.884;5.188;2022-08-16T12:19:28;29.10;99.90
18729;DHT22;9493;51.884;5.188;2022-08-16T12:21:55;29.10;99.90
18729;DHT22;9493;51.884;5.188;2022-08-16T12:24:22;29.00;99.90
18729;DHT22;9493;51.884;5.188;2022-08-16T12:26:48;28.90;99.90
18729;DHT22;9493;51.884;5.188;2022-08-16T12:29:15;29.00;99.90
18729;DHT22;9493;51.884;5.188;2022-08-16T12:31:45;28.90;99.90
18729;DHT22;9493;51.884;5.188;2022-08-16T12:34:13;29.10;99.90
18729;DHT22;9493;51.884;5.188;2022-08-16T12:36:40;29.30;99.90
18729;DHT22;9493;51.884;5.188;2022-08-16T12:39:08;29.20;99.90
18729;DHT22;9493;51.884;5.188;2022-08-16T12:41:34;29.20;99.90
18729;DHT22;9493;51.884;5.188;2022-08-16T12:44:03;29.20;99.90
18729;DHT22;9493;51.884;5.188;2022-08-16T12:46:30;29.10;99.90
18729;DHT22;9493;51.884;5.188;2022-08-16T12:48:59;28.90;99.90
18729;DHT22;9493;51.884;5.188;2022-08-16T12:51:28;28.70;99.90
18729;DHT22;9493;51.884;5.188;2022-08-16T12:53:57;28.70;99.90
18729;DHT22;9493;51.884;5.188;2022-08-16T12:56:27;28.80;99.90
18729;DHT22;9493;51.884;5.188;2022-08-16T12:58:57;28.70;99.90
18729;DHT22;9493;51.884;5.188;2022-08-16T13:01:26;28.50;99.90
18729;DHT22;9493;51.884;5.188;2022-08-16T13:03:55;28.20;99.90
18729;DHT22;9493;51.884;5.188;2022-08-16T13:06:25;28.40;99.90
18729;DHT22;9493;51.884;5.188;2022-08-16T13:08:53;28.40;99.90
18729;DHT22;9493;51.884;5.188;2022-08-16T13:11:24;28.70;99.90
18729;DHT22;9493;51.884;5.188;2022-08-16T13:13:54;29.40;99.90
18729;DHT22;9493;51.884;5.188;2022-08-16T13:16:23;29.90;99.90
18729;DHT22;9493;51.884;5.188;2022-08-16T13:18:50;30.20;99.90
18729;DHT22;9493;51.884;5.188;2022-08-16T13:21:17;29.50;99.90
18729;DHT22;9493;51.884;5.188;2022-08-16T13:23:45;29.30;99.90
18729;DHT22;9493;51.884;5.188;2022-08-16T13:26:12;29.20;99.90
18729;DHT22;9493;51.884;5.188;2022-08-16T13:28:39;29.30;99.90
18729;DHT22;9493;51.884;5.188;2022-08-16T13:31:06;29.50;99.90
18729;DHT22;9493;51.884;5.188;2022-08-16T13:33:33;30.00;99.90
18729;DHT22;9493;51.884;5.188;2022-08-16T13:36:04;30.20;99.90
18729;DHT22;9493;51.884;5.188;2022-08-16T13:38:32;30.30;99.90
18729;DHT22;9493;51.884;5.188;2022-08-16T13:41:02;30.30;99.90
18729;DHT22;9493;51.884;5.188;2022-08-16T13:43:30;30.30;99.90
18729;DHT22;9493;51.884;5.188;2022-08-16T13:45:58;29.80;99.90
18729;DHT22;9493;51.884;5.188;2022-08-16T13:48:27;29.20;99.90
18729;DHT22;9493;51.884;5.188;2022-08-16T13:50:55;29.00;99.90
18729;DHT22;9493;51.884;5.188;2022-08-16T13:53:23;29.20;99.90
18729;DHT22;9493;51.884;5.188;2022-08-16T13:55:50;29.80;99.90
18729;DHT22;9493;51.884;5.188;2022-08-16T13:58:19;30.00;99.90
18729;DHT22;9493;51.884;5.188;2022-08-16T14:00:46;29.80;99.90
18729;DHT22;9493;51.884;5.188;2022-08-16T14:03:13;29.60;99.90
18729;DHT22;9493;51.884;5.188;2022-08-16T14:05:40;29.40;99.90
18729;DHT22;9493;51.884;5.188;2022-08-16T14:08:07;29.30;99.90
18729;DHT22;9493;51.884;5.188;2022-08-16T14:10:34;29.10;99.90
18729;DHT22;9493;51.884;5.188;2022-08-16T14:13:00;28.80;99.90
18729;DHT22;9493;51.884;5.188;2022-08-16T14:15:29;28.90;99.90
18729;DHT22;9493;51.884;5.188;2022-08-16T14:17:56;28.90;99.90
18729;DHT22;9493;51.884;5.188;2022-08-16T14:20:23;29.00;99.90
18729;DHT22;9493;51.884;5.188;2022-08-16T14:22:50;29.20;99.90
18729;DHT22;9493;51.884;5.188;2022-08-16T14:25:18;29.10;99.90
18729;DHT22;9493;51.884;5.188;2022-08-16T14:27:45;29.10;99.90
18729;DHT22;9493;51.884;5.188;2022-08-16T14:30:16;29.10;99.90
18729;DHT22;9493;51.884;5.188;2022-08-16T14:32:45;29.40;99.90
18729;DHT22;9493;51.884;5.188;2022-08-16T14:35:15;29.70;99.90
18729;DHT22;9493;51.884;5.188;2022-08-16T14:37:42;29.70;99.90
18729;DHT22;9493;51.884;5.188;2022-08-16T14:40:15;29.60;99.90
18729;DHT22;9493;51.884;5.188;2022-08-16T14:42:43;29.50;99.90
18729;DHT22;9493;51.884;5.188;2022-08-16T14:45:14;29.50;99.90
18729;DHT22;9493;51.884;5.188;2022-08-16T14:47:41;29.20;99.90
18729;DHT22;9493;51.884;5.188;2022-08-16T14:50:12;29.10;99.90
18729;DHT22;9493;51.884;5.188;2022-08-16T14:52:40;28.80;99.90
18729;DHT22;9493;51.884;5.188;2022-08-16T14:55:07;28.80;99.90
18729;DHT22;9493;51.884;5.188;2022-08-16T14:57:35;28.70;99.90
18729;DHT22;9493;51.884;5.188;2022-08-16T15:00:03;28.80;99.90
18729;DHT22;9493;51.884;5.188;2022-08-16T15:02:30;28.90;99.90
18729;DHT22;9493;51.884;5.188;2022-08-16T15:04:58;29.20;99.90
18729;DHT22;9493;51.884;5.188;2022-08-16T15:07:26;29.60;99.90
18729;DHT22;9493;51.884;5.188;2022-08-16T15:09:53;29.90;99.90
18729;DHT22;9493;51.884;5.188;2022-08-16T15:12:22;29.70;99.90
18729;DHT22;9493;51.884;5.188;2022-08-16T15:14:52;29.60;99.90
18729;DHT22;9493;51.884;5.188;2022-08-16T15:17:20;29.40;99.90
18729;DHT22;9493;51.884;5.188;2022-08-16T15:19:50;29.30;99.90
18729;DHT22;9493;51.884;5.188;2022-08-16T15:22:24;29.40;99.90
18729;DHT22;9493;51.884;5.188;2022-08-16T15:24:56;29.60;99.90
18729;DHT22;9493;51.884;5.188;2022-08-16T15:27:25;29.70;99.90
18729;DHT22;9493;51.884;5.188;2022-08-16T15:29:52;29.50;99.90
18729;DHT22;9493;51.884;5.188;2022-08-16T15:32:19;29.40;99.90
18729;DHT22;9493;51.884;5.188;2022-08-16T15:34:46;29.10;99.90
18729;DHT22;9493;51.884;5.188;2022-08-16T15:37:13;29.00;99.90
18729;DHT22;9493;51.884;5.188;2022-08-16T15:39:41;29.00;99.90
18729;DHT22;9493;51.884;5.188;2022-08-16T15:42:10;29.00;99.90
18729;DHT22;9493;51.884;5.188;2022-08-16T15:44:39;29.00;99.90
18729;DHT22;9493;51.884;5.188;2022-08-16T15:47:08;28.90;99.90
18729;DHT22;9493;51.884;5.188;2022-08-16T15:49:37;28.70;99.90